In Rescue
 
Open Full Screen Window  High Contrast Mode
Wind Gusting 00 knots
03
October 25, 2021 3:59 PM CDT
Weather Information
Wind Direction
  050 °
Wind Speed
  03 kt (3 mph)
Wind Gust
  00 kt (0 mph)
Altimeter
30.14 in
Visibility
10 SM
Temperature
12° C
54° F
Dewpoint
01° C
34° F
Humidity
47%
1hr Rain Fall
00.00 in.
24hr Rain Fall
00.00 in.
Sky Condition
Clear
VFR

METAR KCBG 252059Z AUTO 05003KT 10SM CLR 12/01 A3014 RMK AO2

FAA Disclaimer: The data displayed is for advisory purposes only and is not to be used for flight planning or operations.